Time;durP1;ratioP1;P1;durP2;ratioP2;P2;SDS_P1;SDS_P2;PMS_P1;PMS_P2;Temp;Humidity;BMP_temperature;BMP_pressure;BME280_temperature;BME280_humidity;BME280_pressure;Samples;Min_cycle;Max_cycle;Signal;HPM_P1;HPM_P2
2022/10/27 00:01:32;;;;;;;2.13;1.60;;;15.90;99.90;;;;;;5064865;28;20029;-89
2022/10/27 00:03:58;;;;;;;1.75;1.48;;;15.80;99.90;;;;;;5065805;28;20415;-89
2022/10/27 00:06:24;;;;;;;2.58;1.77;;;15.80;99.90;;;;;;5065953;28;20084;-89
2022/10/27 00:08:51;;;;;;;2.30;1.83;;;15.80;99.90;;;;;;5064778;28;20033;-90
2022/10/27 00:11:17;;;;;;;2.88;1.88;;;15.80;99.90;;;;;;5047724;28;20108;-89
2022/10/27 00:13:43;;;;;;;3.92;1.95;;;15.80;99.90;;;;;;5065769;28;20032;-89
2022/10/27 00:16:14;;;;;;;6.78;2.45;;;15.80;99.90;;;;;;5064707;28;20029;-90
2022/10/27 00:18:44;;;;;;;2.40;2.17;;;15.80;99.90;;;;;;5064438;28;20104;-89
2022/10/27 00:21:12;;;;;;;5.20;2.10;;;15.80;99.90;;;;;;5048380;28;20097;-88
2022/10/27 00:23:39;;;;;;;2.08;1.88;;;15.70;99.90;;;;;;5065767;28;20021;-88
2022/10/27 00:26:06;;;;;;;1.98;1.88;;;15.70;99.90;;;;;;5064240;28;20040;-89
2022/10/27 00:28:32;;;;;;;2.40;2.30;;;15.70;99.90;;;;;;5064341;28;20025;-89
2022/10/27 00:31:02;;;;;;;6.32;3.42;;;15.70;99.90;;;;;;5064489;28;20547;-89
2022/10/27 00:33:29;;;;;;;3.28;1.75;;;15.70;99.90;;;;;;5065674;28;20494;-90
2022/10/27 00:35:54;;;;;;;6.13;2.30;;;15.70;99.90;;;;;;5064384;28;20060;-88
2022/10/27 00:38:22;;;;;;;4.13;2.47;;;15.70;99.90;;;;;;5064524;28;20021;-89
2022/10/27 00:40:49;;;;;;;6.78;3.08;;;15.70;99.90;;;;;;5064158;28;20029;-89
2022/10/27 00:43:24;;;;;;;2.55;2.35;;;15.70;99.90;;;;;;5064266;28;20064;-88
2022/10/27 00:45:51;;;;;;;3.53;2.30;;;15.70;99.90;;;;;;5064301;28;20037;-88
2022/10/27 00:48:16;;;;;;;11.52;1.58;;;15.70;99.90;;;;;;5064316;28;20497;-88
2022/10/27 00:50:43;;;;;;;2.28;1.85;;;15.60;99.90;;;;;;5065566;28;20061;-89
2022/10/27 00:53:10;;;;;;;4.72;1.73;;;15.70;99.90;;;;;;5050431;28;20087;-90
2022/10/27 00:55:38;;;;;;;1.83;1.73;;;15.60;99.90;;;;;;5051347;28;20110;-89
2022/10/27 00:58:08;;;;;;;2.28;2.17;;;15.70;99.90;;;;;;5069182;28;20384;-89
2022/10/27 01:00:35;;;;;;;;;;;15.60;99.90;;;;;;5068533;28;20032;-88
2022/10/27 01:03:02;;;;;;;4.72;1.50;;;15.70;99.90;;;;;;5067871;28;19924;-89
2022/10/27 01:05:28;;;;;;;1.55;1.25;;;15.70;99.90;;;;;;5034716;28;20025;-89
2022/10/27 01:07:59;;;;;;;2.15;1.83;;;15.60;99.90;;;;;;5068993;28;20032;-89
2022/10/27 01:10:26;;;;;;;7.70;1.52;;;15.60;99.90;;;;;;5050940;28;20033;-89
2022/10/27 01:12:53;;;;;;;2.88;2.15;;;15.60;99.90;;;;;;5067675;28;20093;-89
2022/10/27 01:15:22;;;;;;;2.53;1.70;;;15.60;99.90;;;;;;5067563;28;20108;-90
2022/10/27 01:17:50;;;;;;;3.78;2.13;;;15.60;99.90;;;;;;5067658;28;20054;-89
2022/10/27 01:20:39;;;;;;;3.28;2.00;;;15.60;99.90;;;;;;5067749;28;20176;-89
2022/10/27 01:23:31;;;;;;;7.95;1.75;;;15.60;99.90;;;;;;5067727;28;20089;-90
2022/10/27 01:26:27;;;;;;;3.45;1.52;;;15.60;99.90;;;;;;5047656;28;20040;-89
2022/10/27 01:29:23;;;;;;;5.50;2.13;;;15.60;99.90;;;;;;5048729;28;20033;-89
2022/10/27 01:32:14;;;;;;;6.75;1.77;;;15.60;99.90;;;;;;5064286;28;20048;-89
2022/10/27 01:34:49;;;;;;;3.85;1.48;;;15.60;99.90;;;;;;5058808;28;20131;-88
2022/10/27 01:37:34;;;;;;;3.20;1.60;;;15.60;99.90;;;;;;5067049;28;20032;-89
2022/10/27 01:40:27;;;;;;;6.68;2.10;;;15.60;99.90;;;;;;5067228;28;20044;-89
2022/10/27 01:43:02;;;;;;;7.10;1.60;;;15.60;99.90;;;;;;5064879;28;20068;-89
2022/10/27 01:45:32;;;;;;;3.30;1.10;;;15.60;99.90;;;;;;5066998;28;20040;-89
2022/10/27 01:47:59;;;;;;;6.15;2.22;;;15.50;99.90;;;;;;5067296;28;20043;-88
2022/10/27 01:50:37;;;;;;;5.40;1.80;;;15.60;99.90;;;;;;5066740;28;20047;-89
2022/10/27 01:53:03;;;;;;;5.03;2.10;;;15.60;99.90;;;;;;5048201;28;20025;-89
2022/10/27 01:55:32;;;;;;;2.63;1.77;;;15.60;99.90;;;;;;5046828;28;20028;-89
2022/10/27 01:58:31;;;;;;;1.88;1.77;;;15.50;99.90;;;;;;5030522;28;20024;-88
2022/10/27 02:00:57;;;;;;;2.50;1.42;;;15.50;99.90;;;;;;5046883;28;20026;-90
2022/10/27 02:03:33;;;;;;;6.63;1.98;;;15.50;99.90;;;;;;5047550;28;20072;-89
2022/10/27 02:06:08;;;;;;;2.28;1.95;;;15.50;99.90;;;;;;5059461;28;20025;-90
2022/10/27 02:08:48;;;;;;;1.88;1.40;;;15.50;99.90;;;;;;5067971;28;20032;-88
2022/10/27 02:11:14;;;;;;;3.30;1.70;;;15.60;99.90;;;;;;5066640;28;20036;-89
2022/10/27 02:13:44;;;;;;;5.97;1.92;;;15.60;99.90;;;;;;5049902;28;20033;-89
2022/10/27 02:16:17;;;;;;;4.80;2.13;;;15.50;99.90;;;;;;5067982;28;20052;-89
2022/10/27 02:18:52;;;;;;;1.90;1.35;;;15.60;99.90;;;;;;5067690;28;20029;-89
2022/10/27 02:21:19;;;;;;;2.40;1.60;;;15.50;99.90;;;;;;5046275;28;20085;-89
2022/10/27 02:23:45;;;;;;;1.77;1.48;;;15.60;99.90;;;;;;5063033;28;20040;-89
2022/10/27 02:26:25;;;;;;;3.47;1.67;;;15.50;99.90;;;;;;5046494;28;20029;-88
2022/10/27 02:28:57;;;;;;;1.05;0.95;;;15.50;99.90;;;;;;5062966;28;20037;-89
2022/10/27 02:31:29;;;;;;;2.05;1.85;;;15.50;99.90;;;;;;5047555;28;20104;-89
2022/10/27 02:33:56;;;;;;;2.55;1.40;;;15.50;99.90;;;;;;5046242;28;20021;-89
2022/10/27 02:36:22;;;;;;;4.75;2.15;;;15.50;99.90;;;;;;5062053;28;20126;-89
2022/10/27 02:38:48;;;;;;;5.97;1.55;;;15.50;99.90;;;;;;5065998;28;20044;-89
2022/10/27 02:41:14;;;;;;;3.70;1.98;;;15.50;99.90;;;;;;5067235;28;20025;-89
2022/10/27 02:43:40;;;;;;;3.70;1.50;;;;;;;;;;5067509;28;20103;-89
2022/10/27 02:46:06;;;;;;;2.38;2.00;;;15.50;99.90;;;;;;5067196;28;20029;-89
2022/10/27 02:48:32;;;;;;;1.55;1.45;;;15.50;99.90;;;;;;5049393;28;20060;-89
2022/10/27 02:50:57;;;;;;;7.72;2.20;;;15.40;99.90;;;;;;5065604;28;20036;-89
2022/10/27 02:53:23;;;;;;;4.00;1.60;;;15.40;99.90;;;;;;5065778;28;20029;-88
2022/10/27 02:55:49;;;;;;;1.33;1.23;;;15.40;99.90;;;;;;5065811;28;20104;-89
2022/10/27 02:58:15;;;;;;;3.08;1.52;;;15.40;99.90;;;;;;5066846;28;20021;-88
2022/10/27 03:00:41;;;;;;;3.60;1.50;;;15.50;99.90;;;;;;5048806;28;20045;-90
2022/10/27 03:03:07;;;;;;;5.35;1.88;;;15.40;99.90;;;;;;5049029;28;20049;-89
2022/10/27 03:05:33;;;;;;;0.80;0.80;;;15.40;99.90;;;;;;5065484;28;20033;-89
2022/10/27 03:07:59;;;;;;;1.40;1.30;;;15.40;99.90;;;;;;5049073;28;20037;-89
2022/10/27 03:10:25;;;;;;;5.40;1.70;;;15.40;99.90;;;;;;5032473;28;20488;-88
2022/10/27 03:12:50;;;;;;;4.95;1.45;;;15.40;99.90;;;;;;5065407;28;20029;-89
2022/10/27 03:15:16;;;;;;;2.60;1.77;;;15.40;99.90;;;;;;5065890;28;20387;-88
2022/10/27 03:17:44;;;;;;;8.05;2.58;;;15.40;99.90;;;;;;5048718;28;20021;-90
2022/10/27 03:20:11;;;;;;;3.30;1.98;;;15.40;99.90;;;;;;5065316;28;20151;-88
2022/10/27 03:22:38;;;;;;;3.95;2.45;;;15.40;99.90;;;;;;5048615;28;20013;-90
2022/10/27 03:25:04;;;;;;;5.43;2.38;;;15.40;99.90;;;;;;5048411;28;20403;-88
2022/10/27 03:27:30;;;;;;;11.52;3.40;;;15.30;99.90;;;;;;5065247;28;20052;-89
2022/10/27 03:29:55;;;;;;;3.10;2.10;;;15.40;99.90;;;;;;5048579;28;20025;-89
2022/10/27 03:32:22;;;;;;;3.15;2.35;;;15.30;99.90;;;;;;5066526;28;20079;-89
2022/10/27 03:34:47;;;;;;;9.95;2.15;;;15.30;99.90;;;;;;5066099;28;20057;-89
2022/10/27 03:37:13;;;;;;;4.80;2.33;;;15.30;99.90;;;;;;5048497;28;20020;-89
2022/10/27 03:39:39;;;;;;;3.90;2.90;;;15.30;99.90;;;;;;5066437;28;20430;-89
2022/10/27 03:42:05;;;;;;;5.18;2.53;;;15.30;99.90;;;;;;5048326;28;20025;-90
2022/10/27 03:44:31;;;;;;;10.50;3.10;;;15.30;99.90;;;;;;5065118;28;20467;-89
2022/10/27 03:46:56;;;;;;;7.28;2.70;;;15.20;99.90;;;;;;5065341;28;20040;-90
2022/10/27 03:49:22;;;;;;;3.72;2.13;;;15.30;99.90;;;;;;5065962;28;20025;-89
2022/10/27 03:51:48;;;;;;;7.10;2.85;;;;;;;;;;5065018;28;20032;-90
2022/10/27 03:54:14;;;;;;;2.63;2.35;;;;;;;;;;5064929;28;20033;-89
2022/10/27 03:56:40;;;;;;;3.55;2.72;;;15.20;99.90;;;;;;5064309;28;20033;-89
2022/10/27 03:59:07;;;;;;;4.35;2.08;;;15.20;99.90;;;;;;5048333;28;20048;-88
2022/10/27 04:01:34;;;;;;;4.57;2.47;;;15.20;99.90;;;;;;5064809;28;20064;-89
2022/10/27 04:04:00;;;;;;;4.85;2.80;;;;;;;;;;5065895;28;20132;-90
2022/10/27 04:06:26;;;;;;;3.28;2.10;;;15.20;99.90;;;;;;5064740;28;20087;-88
2022/10/27 04:08:51;;;;;;;4.25;2.05;;;15.20;99.90;;;;;;5064582;28;20032;-88
2022/10/27 04:11:17;;;;;;;5.10;2.00;;;15.20;99.90;;;;;;5047799;28;20033;-88
2022/10/27 04:13:45;;;;;;;7.70;3.05;;;15.20;99.90;;;;;;5065925;28;20076;-90
2022/10/27 04:16:10;;;;;;;3.90;2.10;;;15.20;99.90;;;;;;5047846;28;20392;-87
2022/10/27 04:18:36;;;;;;;1.92;1.77;;;15.20;99.90;;;;;;5064361;28;20033;-89
2022/10/27 04:21:03;;;;;;;8.27;3.00;;;15.20;99.90;;;;;;5065936;28;20022;-88
2022/10/27 04:23:29;;;;;;;5.60;2.97;;;15.20;99.90;;;;;;5064403;28;20039;-89
2022/10/27 04:25:55;;;;;;;2.38;1.88;;;15.20;99.90;;;;;;5037388;28;20057;-89
2022/10/27 04:28:21;;;;;;;3.88;2.65;;;15.20;99.90;;;;;;5069338;28;20033;-89
2022/10/27 04:30:47;;;;;;;6.13;3.33;;;15.10;99.90;;;;;;5068536;28;20496;-89
2022/10/27 04:33:13;;;;;;;4.80;2.45;;;15.10;99.90;;;;;;5068434;28;20028;-89
2022/10/27 04:35:39;;;;;;;2.35;1.73;;;15.20;99.90;;;;;;5051844;28;20036;-89
2022/10/27 04:38:04;;;;;;;4.47;1.80;;;15.10;99.90;;;;;;5068433;28;20119;-88
2022/10/27 04:40:31;;;;;;;3.75;2.20;;;15.10;99.90;;;;;;5051683;28;20041;-89
2022/10/27 04:42:57;;;;;;;5.32;2.05;;;15.10;99.90;;;;;;5069137;28;20396;-89
2022/10/27 04:45:23;;;;;;;4.00;2.22;;;15.10;99.90;;;;;;5039453;28;20033;-89
2022/10/27 04:47:49;;;;;;;4.38;2.20;;;15.10;99.90;;;;;;5066259;28;20037;-89
2022/10/27 04:50:16;;;;;;;3.20;1.80;;;15.10;99.90;;;;;;5046157;28;20056;-89
2022/10/27 04:52:42;;;;;;;1.85;1.58;;;;;;;;;;5034670;28;20047;-89
2022/10/27 04:55:08;;;;;;;3.03;2.30;;;15.10;99.90;;;;;;5059128;28;20029;-90
2022/10/27 04:57:34;;;;;;;6.45;2.47;;;15.10;99.90;;;;;;5067802;28;20036;-89
2022/10/27 05:00:00;;;;;;;6.45;2.65;;;15.10;99.90;;;;;;5047773;28;20048;-89
2022/10/27 05:02:26;;;;;;;4.05;2.75;;;15.10;99.90;;;;;;5055617;28;20061;-89
2022/10/27 05:04:52;;;;;;;9.60;3.03;;;15.10;99.90;;;;;;5047846;28;20100;-89
2022/10/27 05:07:17;;;;;;;6.07;1.95;;;15.10;99.90;;;;;;5066873;28;20029;-89
2022/10/27 05:09:44;;;;;;;2.80;2.53;;;;;;;;;;5061423;28;20037;-88
2022/10/27 05:12:09;;;;;;;2.22;1.40;;;15.10;99.90;;;;;;5042602;28;20040;-89
2022/10/27 05:14:35;;;;;;;2.50;1.90;;;;;;;;;;5030412;28;20037;-89
2022/10/27 05:17:01;;;;;;;5.93;1.90;;;15.00;99.90;;;;;;5057916;28;20055;-90
2022/10/27 05:19:27;;;;;;;3.45;1.90;;;;;;;;;;5057278;28;20057;-89
2022/10/27 05:21:53;;;;;;;2.55;1.73;;;15.00;99.90;;;;;;5065376;28;20056;-89
2022/10/27 05:24:19;;;;;;;2.28;1.65;;;15.00;99.90;;;;;;5067408;28;20036;-89
2022/10/27 05:26:46;;;;;;;3.35;1.70;;;;;;;;;;5032543;28;20112;-88
2022/10/27 05:29:12;;;;;;;5.95;1.90;;;;;;;;;;5047798;28;20033;-87
2022/10/27 05:31:38;;;;;;;1.83;1.73;;;15.00;99.90;;;;;;5047437;28;20060;-88
2022/10/27 05:34:03;;;;;;;4.45;1.85;;;15.00;99.90;;;;;;5052962;28;20021;-88
2022/10/27 05:36:29;;;;;;;4.40;1.63;;;15.00;99.90;;;;;;5049566;28;20017;-89
2022/10/27 05:38:55;;;;;;;9.68;2.55;;;15.00;99.90;;;;;;5049737;28;20098;-88
2022/10/27 05:41:20;;;;;;;3.45;2.10;;;15.00;99.90;;;;;;5049838;28;20025;-89
2022/10/27 05:43:46;;;;;;;32.65;2.33;;;15.00;99.90;;;;;;5033753;28;20037;-87
2022/10/27 05:46:12;;;;;;;2.10;1.95;;;15.00;99.90;;;;;;5049999;28;20487;-88
2022/10/27 05:48:38;;;;;;;4.28;1.95;;;15.00;99.90;;;;;;5046784;28;20021;-88
2022/10/27 05:51:03;;;;;;;5.15;2.70;;;15.00;99.90;;;;;;5030231;28;20403;-89
2022/10/27 05:53:29;;;;;;;2.03;1.55;;;14.90;99.90;;;;;;5051327;28;20033;-89
2022/10/27 05:55:55;;;;;;;2.55;1.83;;;15.00;99.90;;;;;;5030453;28;20014;-89
2022/10/27 05:58:21;;;;;;;1.33;1.23;;;15.00;99.90;;;;;;5046845;28;20060;-88
2022/10/27 06:00:48;;;;;;;3.70;2.08;;;14.90;99.90;;;;;;5074464;28;20043;-89
2022/10/27 06:03:23;;;;;;;1.80;1.63;;;14.90;99.90;;;;;;5087684;28;20079;-89
2022/10/27 06:05:50;;;;;;;2.83;1.83;;;14.90;99.90;;;;;;5070441;28;20391;-88
2022/10/27 06:08:16;;;;;;;1.60;1.50;;;14.90;99.90;;;;;;5086981;28;20032;-89
2022/10/27 06:10:43;;;;;;;3.75;2.00;;;14.90;99.90;;;;;;5070020;28;20024;-88
2022/10/27 06:13:11;;;;;;;3.08;1.77;;;14.90;99.90;;;;;;5087827;28;20074;-89
2022/10/27 06:15:37;;;;;;;4.88;2.33;;;14.90;99.90;;;;;;5086939;28;20031;-89
2022/10/27 06:18:03;;;;;;;3.55;2.30;;;14.90;99.90;;;;;;5068876;28;20028;-89
2022/10/27 06:20:29;;;;;;;7.05;2.45;;;14.90;99.90;;;;;;5046897;28;20049;-89
2022/10/27 06:22:55;;;;;;;1.95;1.63;;;14.90;99.90;;;;;;5056466;28;20028;-89
2022/10/27 06:25:20;;;;;;;2.15;1.95;;;14.90;99.90;;;;;;5070488;28;20031;-88
2022/10/27 06:27:46;;;;;;;1.65;1.55;;;14.90;99.90;;;;;;5086326;28;20025;-90
2022/10/27 06:30:12;;;;;;;3.45;2.05;;;14.80;99.90;;;;;;5070088;28;20035;-89
2022/10/27 06:32:39;;;;;;;3.30;1.77;;;14.80;99.90;;;;;;5086921;28;20607;-90
2022/10/27 06:35:06;;;;;;;2.50;2.25;;;14.80;99.90;;;;;;5084621;28;20066;-89
2022/10/27 06:37:31;;;;;;;3.53;2.03;;;14.80;99.90;;;;;;5066467;28;20029;-89
2022/10/27 06:39:58;;;;;;;4.60;1.63;;;14.80;99.90;;;;;;5067538;28;20055;-89
2022/10/27 06:42:24;;;;;;;4.00;0.90;;;14.80;99.90;;;;;;5066092;28;20028;-88
2022/10/27 06:44:52;;;;;;;2.03;1.80;;;14.80;99.90;;;;;;5066559;28;20387;-89
2022/10/27 06:47:18;;;;;;;5.00;2.15;;;14.80;99.90;;;;;;5082949;28;20036;-88
2022/10/27 06:49:44;;;;;;;3.95;1.40;;;14.80;99.90;;;;;;5050420;28;20025;-89
2022/10/27 06:52:10;;;;;;;3.03;1.20;;;14.80;99.90;;;;;;5087545;28;20025;-89
2022/10/27 06:54:35;;;;;;;4.15;0.75;;;14.80;99.90;;;;;;5069080;28;20016;-88
2022/10/27 06:57:01;;;;;;;3.10;1.30;;;14.80;99.90;;;;;;5085838;28;20036;-89
2022/10/27 06:59:27;;;;;;;6.50;1.55;;;14.80;99.90;;;;;;5069633;28;20036;-89
2022/10/27 07:01:53;;;;;;;4.22;1.50;;;14.80;99.90;;;;;;5086915;28;20028;-89
2022/10/27 07:04:18;;;;;;;1.63;1.52;;;14.80;99.90;;;;;;5086708;28;20044;-88
2022/10/27 07:06:44;;;;;;;3.70;1.67;;;14.70;99.90;;;;;;5045850;28;20033;-88
2022/10/27 07:09:10;;;;;;;3.90;1.90;;;14.70;99.90;;;;;;5062280;28;20032;-88
2022/10/27 07:11:36;;;;;;;1.52;1.42;;;14.70;99.90;;;;;;5047174;28;20060;-89
2022/10/27 07:14:02;;;;;;;1.38;1.27;;;14.80;99.90;;;;;;5046712;28;20064;-88
2022/10/27 07:16:28;;;;;;;2.20;1.02;;;14.80;99.90;;;;;;5046870;28;20029;-89
2022/10/27 07:18:53;;;;;;;2.70;2.50;;;14.80;99.90;;;;;;5046687;28;20028;-88
2022/10/27 07:21:20;;;;;;;1.85;1.75;;;14.80;99.90;;;;;;5083851;28;20054;-89
2022/10/27 07:23:45;;;;;;;4.18;1.80;;;14.80;99.90;;;;;;5068712;28;20031;-88
2022/10/27 07:26:11;;;;;;;1.27;1.17;;;14.80;99.90;;;;;;5085470;28;20028;-88
2022/10/27 07:28:37;;;;;;;5.45;1.95;;;14.80;99.90;;;;;;5085412;28;20032;-88
2022/10/27 07:31:03;;;;;;;3.03;1.45;;;14.80;99.90;;;;;;5085237;28;20028;-89
2022/10/27 07:33:28;;;;;;;2.58;1.67;;;14.80;99.90;;;;;;5086714;28;20479;-88
2022/10/27 07:35:54;;;;;;;1.77;1.15;;;14.80;99.90;;;;;;5068826;28;20051;-89
2022/10/27 07:38:20;;;;;;;6.15;1.58;;;14.80;99.90;;;;;;5066472;28;20021;-89
2022/10/27 07:40:46;;;;;;;2.63;1.65;;;;;;;;;;5065181;28;20048;-88
2022/10/27 07:43:13;;;;;;;2.92;1.67;;;;;;;;;;5067065;28;20033;-88
2022/10/27 07:45:40;;;;;;;3.90;1.40;;;14.80;99.90;;;;;;5066189;28;20036;-88
2022/10/27 07:48:11;;;;;;;2.10;1.13;;;14.80;99.90;;;;;;5048443;28;20040;-89
2022/10/27 07:50:37;;;;;;;4.30;1.27;;;14.80;99.90;;;;;;5066231;28;20127;-89
2022/10/27 07:53:03;;;;;;;3.60;1.25;;;14.90;99.90;;;;;;5067984;28;20048;-89
2022/10/27 07:55:31;;;;;;;4.05;1.40;;;14.80;99.90;;;;;;5086585;28;20031;-89
2022/10/27 07:58:07;;;;;;;5.85;1.13;;;14.90;99.90;;;;;;5068043;28;20493;-89
2022/10/27 08:00:36;;;;;;;1.50;1.40;;;14.90;99.90;;;;;;5084332;28;20135;-88
2022/10/27 08:03:03;;;;;;;2.03;1.30;;;14.90;99.90;;;;;;5067638;28;20044;-88
2022/10/27 08:05:32;;;;;;;1.02;0.93;;;14.90;99.90;;;;;;5085019;28;20032;-88
2022/10/27 08:07:59;;;;;;;3.95;1.10;;;14.90;99.90;;;;;;5048458;28;20483;-88
2022/10/27 08:10:26;;;;;;;1.33;1.23;;;14.90;99.90;;;;;;5066107;28;20020;-89
2022/10/27 08:12:52;;;;;;;4.72;1.55;;;14.90;99.90;;;;;;5048128;28;20480;-89
2022/10/27 08:15:18;;;;;;;2.85;1.58;;;14.90;99.90;;;;;;5048132;28;20033;-89
2022/10/27 08:17:43;;;;;;;0.98;0.98;;;14.90;99.90;;;;;;5066209;28;20043;-89
2022/10/27 08:20:09;;;;;;;3.60;2.65;;;14.90;99.90;;;;;;5064701;28;20116;-88
2022/10/27 08:22:35;;;;;;;4.32;1.75;;;14.90;99.90;;;;;;5101853;28;20020;-89
2022/10/27 08:25:01;;;;;;;6.13;1.60;;;14.90;99.90;;;;;;5067876;28;20024;-90
2022/10/27 08:27:27;;;;;;;4.90;1.25;;;14.90;99.90;;;;;;5068089;28;20048;-89
2022/10/27 08:29:53;;;;;;;11.45;1.83;;;15.00;99.90;;;;;;5084636;28;20082;-89
2022/10/27 08:32:19;;;;;;;3.55;1.65;;;15.00;99.90;;;;;;5085785;28;20017;-89
2022/10/27 08:34:44;;;;;;;2.20;0.85;;;15.00;99.90;;;;;;5067916;28;20035;-90
2022/10/27 08:37:10;;;;;;;3.55;1.30;;;15.00;99.90;;;;;;5065372;28;20086;-89
2022/10/27 08:39:36;;;;;;;3.00;1.73;;;;;;;;;;5048087;28;20021;-89
2022/10/27 08:42:17;;;;;;;3.63;1.98;;;15.10;99.90;;;;;;5064603;28;20037;-89
2022/10/27 08:44:59;;;;;;;5.13;1.10;;;15.20;99.90;;;;;;5047745;28;20025;-88
2022/10/27 08:47:25;;;;;;;4.38;1.75;;;15.20;99.90;;;;;;5064450;28;20028;-90
2022/10/27 08:49:56;;;;;;;2.95;1.58;;;15.20;99.90;;;;;;5049707;28;20043;-88
2022/10/27 08:52:37;;;;;;;4.18;1.63;;;15.30;99.90;;;;;;5084488;28;20032;-88
2022/10/27 08:55:11;;;;;;;1.48;0.77;;;15.30;99.90;;;;;;5084583;28;20396;-89
2022/10/27 08:57:40;;;;;;;1.17;1.17;;;15.30;99.90;;;;;;5084468;28;20025;-89
2022/10/27 09:00:11;;;;;;;0.75;0.75;;;15.30;99.90;;;;;;5067608;28;20112;-89
2022/10/27 09:03:04;;;;;;;0.80;0.80;;;15.40;99.90;;;;;;5084022;28;20045;-88
2022/10/27 09:06:00;;;;;;;2.53;0.98;;;15.40;99.90;;;;;;5074880;28;20376;-90
2022/10/27 09:08:48;;;;;;;3.38;0.70;;;15.40;99.90;;;;;;5064319;28;20504;-89
2022/10/27 09:11:32;;;;;;;3.08;1.15;;;15.50;99.90;;;;;;5065387;28;20025;-88
2022/10/27 09:14:20;;;;;;;1.98;1.25;;;15.50;99.90;;;;;;5067901;28;20029;-89
2022/10/27 09:16:56;;;;;;;2.45;1.23;;;15.60;99.90;;;;;;5067683;28;20087;-89
2022/10/27 09:19:29;;;;;;;3.50;1.38;;;15.60;99.90;;;;;;5052772;28;20405;-88
2022/10/27 09:21:55;;;;;;;2.10;0.90;;;15.70;99.90;;;;;;5088870;28;20028;-89
2022/10/27 09:24:25;;;;;;;2.10;0.82;;;15.70;99.90;;;;;;5071309;28;20029;-90
2022/10/27 09:26:52;;;;;;;1.77;1.00;;;15.70;99.90;;;;;;5087654;28;20050;-88
2022/10/27 09:29:20;;;;;;;4.30;1.33;;;15.80;99.90;;;;;;5087817;28;20119;-89
2022/10/27 09:31:54;;;;;;;3.55;1.45;;;15.80;99.90;;;;;;5087957;28;20111;-89
2022/10/27 09:34:28;;;;;;;5.15;1.40;;;15.90;99.90;;;;;;5088275;28;20041;-89
2022/10/27 09:36:54;;;;;;;1.27;1.15;;;16.00;99.90;;;;;;5079473;28;20059;-89
2022/10/27 09:39:21;;;;;;;2.83;1.23;;;16.00;99.90;;;;;;5085668;28;20386;-88
2022/10/27 09:41:47;;;;;;;1.35;0.80;;;16.00;99.90;;;;;;5068953;28;20028;-89
2022/10/27 09:44:19;;;;;;;2.90;1.88;;;16.00;99.90;;;;;;5050666;28;20033;-88
2022/10/27 09:46:49;;;;;;;2.97;0.90;;;16.00;99.90;;;;;;5083913;28;20040;-89
2022/10/27 09:49:17;;;;;;;1.58;1.13;;;16.10;99.90;;;;;;5067727;28;20037;-90
2022/10/27 09:51:54;;;;;;;3.75;1.33;;;16.20;99.90;;;;;;5075258;28;20097;-89
2022/10/27 09:54:38;;;;;;;0.65;0.65;;;16.30;99.90;;;;;;5087359;28;20037;-88
2022/10/27 09:57:10;;;;;;;2.80;1.17;;;16.40;99.90;;;;;;5070155;28;20040;-89
2022/10/27 09:59:37;;;;;;;1.65;1.17;;;16.50;99.90;;;;;;5086936;28;20039;-89
2022/10/27 10:02:19;;;;;;;1.85;1.35;;;16.50;99.90;;;;;;5053847;28;20020;-88
2022/10/27 10:04:46;;;;;;;2.50;0.63;;;16.50;99.90;;;;;;5070362;28;20033;-88
2022/10/27 10:07:33;;;;;;;1.73;1.63;;;16.50;99.90;;;;;;5073599;28;20037;-89
2022/10/27 10:10:06;;;;;;;3.08;1.10;;;16.60;99.90;;;;;;5066701;28;20029;-89
2022/10/27 10:12:32;;;;;;;2.30;1.20;;;;;;;;;;5069859;28;20040;-88
2022/10/27 10:15:10;;;;;;;1.30;1.13;;;16.80;99.90;;;;;;5068044;28;20118;-90
2022/10/27 10:17:49;;;;;;;2.83;0.38;;;16.80;99.90;;;;;;5066829;28;20033;-89
2022/10/27 10:20:28;;;;;;;0.47;0.47;;;16.90;99.90;;;;;;5066921;28;20033;-89
2022/10/27 10:22:54;;;;;;;1.45;0.30;;;17.00;99.90;;;;;;5069631;28;20025;-90
2022/10/27 10:25:25;;;;;;;2.97;1.17;;;17.00;99.90;;;;;;5049662;28;20047;-90
2022/10/27 10:28:03;;;;;;;0.60;0.60;;;17.00;99.90;;;;;;5066501;28;20395;-91
2022/10/27 10:30:33;;;;;;;6.90;0.60;;;17.00;99.90;;;;;;5067758;28;20025;-90
2022/10/27 10:33:03;;;;;;;3.38;1.17;;;17.10;99.90;;;;;;5066676;28;20420;-90
2022/10/27 10:35:45;;;;;;;4.38;1.58;;;17.10;99.90;;;;;;5050296;28;20119;-89
2022/10/27 10:38:24;;;;;;;1.70;1.25;;;17.20;99.90;;;;;;5072465;28;20020;-90
2022/10/27 10:41:11;;;;;;;0.28;0.28;;;17.20;99.90;;;;;;5069754;28;20487;-89
2022/10/27 10:43:37;;;;;;;3.78;1.00;;;17.20;99.90;;;;;;5086169;28;20032;-90
2022/10/27 10:46:05;;;;;;;1.60;0.80;;;17.20;99.90;;;;;;5087355;28;20028;-89
2022/10/27 10:48:31;;;;;;;3.50;1.13;;;;;;;;;;5069599;28;20037;-90
2022/10/27 10:50:58;;;;;;;1.40;1.20;;;17.30;99.90;;;;;;5086315;28;20056;-89
2022/10/27 10:53:38;;;;;;;1.80;1.15;;;17.30;99.90;;;;;;5084319;28;20096;-89
2022/10/27 10:56:17;;;;;;;2.53;0.82;;;17.30;99.90;;;;;;5086434;28;20029;-89
2022/10/27 10:58:45;;;;;;;3.45;0.68;;;17.40;99.90;;;;;;5086100;28;20029;-90
2022/10/27 11:01:12;;;;;;;4.55;1.23;;;17.40;99.90;;;;;;5065631;28;20430;-89
2022/10/27 11:03:44;;;;;;;5.43;1.73;;;17.40;99.90;;;;;;5065745;28;20053;-91
2022/10/27 11:06:20;;;;;;;4.22;1.48;;;17.40;99.90;;;;;;5066826;28;20068;-89
2022/10/27 11:09:00;;;;;;;0.47;0.47;;;17.40;99.90;;;;;;5049294;28;20040;-90
2022/10/27 11:11:31;;;;;;;1.67;0.93;;;17.40;99.90;;;;;;5065698;28;20079;-91
2022/10/27 11:14:01;;;;;;;1.58;0.60;;;17.50;99.90;;;;;;5048954;28;20037;-90
2022/10/27 11:16:32;;;;;;;1.77;1.27;;;17.40;99.90;;;;;;5066682;28;20383;-90
2022/10/27 11:19:06;;;;;;;1.50;1.10;;;17.40;99.90;;;;;;5049984;28;20048;-90
2022/10/27 11:21:41;;;;;;;3.53;0.85;;;17.40;99.90;;;;;;5065003;28;20054;-89
2022/10/27 11:24:07;;;;;;;3.10;0.95;;;17.40;99.90;;;;;;5065432;28;20029;-90
2022/10/27 11:26:37;;;;;;;3.10;0.63;;;17.50;99.90;;;;;;5065362;28;20031;-89
2022/10/27 11:29:09;;;;;;;3.17;1.48;;;17.50;99.90;;;;;;5066726;28;20033;-90
2022/10/27 11:31:41;;;;;;;1.35;0.65;;;17.40;99.90;;;;;;5065076;28;20056;-90
2022/10/27 11:34:07;;;;;;;1.65;1.02;;;17.40;99.90;;;;;;5065095;28;20032;-90
2022/10/27 11:36:37;;;;;;;5.80;1.10;;;17.40;99.90;;;;;;5048175;28;20021;-90
2022/10/27 11:39:06;;;;;;;1.27;1.15;;;17.40;99.90;;;;;;5066627;28;20040;-89
2022/10/27 11:41:44;;;;;;;3.60;0.55;;;17.40;99.90;;;;;;5066774;28;20036;-90
2022/10/27 11:44:30;;;;;;;1.55;0.98;;;17.40;99.90;;;;;;5065342;28;20055;-91
2022/10/27 11:47:04;;;;;;;0.90;0.90;;;17.40;99.90;;;;;;5065762;28;20463;-90
2022/10/27 11:50:12;;;;;;;3.08;1.00;;;17.40;99.90;;;;;;5065405;28;20071;-90
2022/10/27 11:52:47;;;;;;;3.53;1.42;;;17.40;99.90;;;;;;5064704;28;20032;-90
2022/10/27 11:55:17;;;;;;;4.28;1.38;;;17.30;99.90;;;;;;5066135;28;20033;-89
2022/10/27 11:57:50;;;;;;;0.70;0.55;;;17.30;99.90;;;;;;5044649;28;20056;-89
2022/10/27 12:00:24;;;;;;;1.90;1.30;;;17.30;99.90;;;;;;5052329;28;20104;-91
2022/10/27 12:03:13;;;;;;;3.75;1.05;;;17.30;99.90;;;;;;5064841;28;20124;-90
2022/10/27 12:05:49;;;;;;;5.07;1.00;;;17.30;99.90;;;;;;5064996;28;20090;-89
2022/10/27 12:08:27;;;;;;;0.95;0.73;;;17.30;99.90;;;;;;5065900;28;20032;-89
2022/10/27 12:10:59;;;;;;;1.23;0.63;;;17.30;99.90;;;;;;5063701;28;20040;-89
2022/10/27 12:13:31;;;;;;;1.42;1.00;;;17.40;99.90;;;;;;5064582;28;20044;-90
2022/10/27 12:16:14;;;;;;;2.03;1.00;;;17.40;99.90;;;;;;5048244;28;20027;-90
2022/10/27 12:19:01;;;;;;;2.53;1.20;;;17.40;99.90;;;;;;5065622;28;20029;-90
2022/10/27 12:21:47;;;;;;;4.25;1.45;;;17.40;99.90;;;;;;5066601;28;20076;-90
2022/10/27 12:24:26;;;;;;;2.90;1.05;;;17.50;99.90;;;;;;5065471;28;20475;-90
2022/10/27 12:27:13;;;;;;;1.60;1.20;;;17.50;99.90;;;;;;5067258;28;20039;-90
2022/10/27 12:29:47;;;;;;;3.30;0.98;;;17.60;99.90;;;;;;5066634;28;20041;-90
2022/10/27 12:32:23;;;;;;;1.35;1.13;;;17.60;99.90;;;;;;5066539;28;20021;-90
2022/10/27 12:35:15;;;;;;;1.83;1.10;;;17.60;99.90;;;;;;5064990;28;20524;-91
2022/10/27 12:37:49;;;;;;;1.17;1.10;;;17.70;99.90;;;;;;5045799;28;20065;-89
2022/10/27 12:40:39;;;;;;;6.80;1.95;;;17.80;99.90;;;;;;5044698;28;20097;-90
2022/10/27 12:43:33;;;;;;;1.85;1.33;;;17.80;99.90;;;;;;5045461;28;20033;-90
2022/10/27 12:46:29;;;;;;;2.83;1.27;;;17.80;99.90;;;;;;5053343;28;20388;-90
2022/10/27 12:49:16;;;;;;;4.60;2.58;;;17.80;99.90;;;;;;5068732;28;20025;-89
2022/10/27 12:51:45;;;;;;;2.15;2.03;;;17.80;99.90;;;;;;5068723;28;20036;-89
2022/10/27 12:54:32;;;;;;;7.43;1.35;;;17.80;99.90;;;;;;5068368;28;20029;-90
2022/10/27 12:56:57;;;;;;;4.97;2.38;;;17.80;99.90;;;;;;5068453;28;20059;-89
2022/10/27 13:00:02;;;;;;;1.23;1.00;;;17.80;99.90;;;;;;5068286;28;20028;-91
2022/10/27 13:03:06;;;;;;;2.30;0.95;;;17.80;99.90;;;;;;5049961;28;20052;-90
2022/10/27 13:06:02;;;;;;;2.78;1.33;;;17.90;99.90;;;;;;5031731;28;20045;-89
2022/10/27 13:09:09;;;;;;;3.08;1.15;;;17.90;99.90;;;;;;5063385;28;20379;-90
2022/10/27 13:12:03;;;;;;;7.97;2.03;;;18.00;99.90;;;;;;5035218;28;20037;-89